»·PEaware :: N286WF KBVU-KSBA

N286WF :: KBVU-KSBA

FLIGHT INFORMATION

Flight Status: Arrived
Operator: Privately registered:
United States
More flights under this callsign
Pilot: Frank W. (16848)
Aircraft: Unknown
(P28U)
More flights by this aircraft type
Origin: KBVU Boulder City
United States
Destination: KSBA Santa Barbara Mun
United States
More flights between these airports :: More routes between these airports
Route: HEC PMD V12 RZS
File this flight plan on PilotEdge
Remarks:
Altitude:
(Current/Filed)
12,500ft
Speed:
(Current/Filed)
140kts
Departed: 11-Sep-19 03:56 PM
Arrived: 11-Sep-19 05:55 PM
Distance/Time
Traveled:
260nm/1:59
Distance/Time
To Go:
Arrived

Flight Plot

Page will automatically refresh every two minutes.


Map Options




Map Legend


Flown Route
Filed Route
Departure Airport
Arrival Airport
Navaid (VOR, NDB)
Fix

Horizontal Profiles

Position Reports

Time Latitude Longitude Heading Altitude Ground
Speed
11-Sep-19 15:34 35.947884 -114.853816 188 2206ft 0kts
11-Sep-19 15:35 35.947884 -114.853816 188 2206ft 0kts
11-Sep-19 15:36 35.947884 -114.853816 188 2206ft 0kts
11-Sep-19 15:37 35.947884 -114.853816 188 2206ft 0kts
11-Sep-19 15:38 35.947884 -114.853816 188 2206ft 0kts
11-Sep-19 15:39 35.947884 -114.853816 188 2206ft 0kts
11-Sep-19 15:40 35.947836 -114.854687 289 2206ft 0kts
11-Sep-19 15:41 35.947849 -114.857024 280 2206ft 11kts
11-Sep-19 15:42 35.948396 -114.861131 268 2206ft 6kts
11-Sep-19 15:43 35.948268 -114.865036 266 2206ft 13kts
11-Sep-19 15:44 35.948291 -114.865343 88 2206ft 3kts
11-Sep-19 15:45 35.948200 -114.859506 98 2206ft 26kts
11-Sep-19 15:46 35.947129 -114.852719 164 2206ft 5kts
11-Sep-19 15:47 35.945981 -114.852671 273 2206ft 0kts
11-Sep-19 15:48 35.945981 -114.852671 273 2206ft 0kts
11-Sep-19 15:49 35.945982 -114.852676 275 2206ft 0kts
11-Sep-19 15:50 35.945964 -114.852952 189 2206ft 0kts
11-Sep-19 15:51 35.945261 -114.853283 280 2206ft 6kts
11-Sep-19 15:52 35.947133 -114.871102 357 2203ft 0kts
11-Sep-19 15:53 35.945265 -114.853290 279 2206ft 0kts
11-Sep-19 15:54 35.945265 -114.853291 279 2206ft 0kts
11-Sep-19 15:55 35.947244 -114.874903 264 2438ft 70kts
11-Sep-19 15:56 35.936542 -114.898906 210 2999ft 108kts
11-Sep-19 15:57 35.910902 -114.917849 229 3795ft 113kts
11-Sep-19 15:58 35.892682 -114.943999 231 4769ft 98kts
11-Sep-19 15:59 35.874755 -114.970071 230 5594ft 101kts
11-Sep-19 16:00 35.856123 -114.996380 225 6410ft 102kts
11-Sep-19 16:01 35.837384 -115.022846 228 7122ft 113kts
11-Sep-19 16:02 35.815019 -115.054571 229 7053ft 131kts
11-Sep-19 16:03 35.790619 -115.088904 230 7081ft 135kts
11-Sep-19 16:04 35.765790 -115.123964 230 7354ft 137kts
11-Sep-19 16:05 35.740439 -115.159735 231 7607ft 140kts
11-Sep-19 16:07 35.714423 -115.196232 231 7854ft 143kts
11-Sep-19 16:08 35.687995 -115.233299 230 8132ft 144kts
11-Sep-19 16:09 35.661525 -115.270572 231 8407ft 144kts
11-Sep-19 16:10 35.634790 -115.307944 230 8683ft 145kts
11-Sep-19 16:11 35.608028 -115.345506 231 8958ft 146kts
11-Sep-19 16:12 35.581638 -115.382399 229 9369ft 141kts
11-Sep-19 16:13 35.562091 -115.409829 229 9673ft 142kts
11-Sep-19 16:14 35.537277 -115.444366 229 10306ft 128kts
11-Sep-19 16:15 35.513035 -115.478114 229 10660ft 143kts
11-Sep-19 16:16 35.484972 -115.517268 230 10594ft 156kts
11-Sep-19 16:17 35.456296 -115.557257 228 10593ft 153kts
11-Sep-19 16:18 35.427417 -115.595315 229 10593ft 151kts
11-Sep-19 16:19 35.399454 -115.633899 230 10594ft 151kts
11-Sep-19 16:20 35.372076 -115.671868 229 10594ft 151kts
11-Sep-19 16:21 35.345682 -115.708477 229 10593ft 151kts
11-Sep-19 16:22 35.317792 -115.747102 229 10592ft 151kts
11-Sep-19 16:23 35.289967 -115.785618 229 10590ft 151kts
11-Sep-19 16:24 35.261940 -115.824350 229 10589ft 152kts
11-Sep-19 16:24 35.238566 -115.856634 229 10587ft 152kts
11-Sep-19 16:26 35.205814 -115.901822 229 10586ft 152kts
11-Sep-19 16:27 35.177599 -115.940685 229 10585ft 152kts
11-Sep-19 16:27 35.154163 -115.972934 229 10585ft 152kts
11-Sep-19 16:28 35.125904 -116.011806 229 10585ft 152kts
11-Sep-19 16:30 35.093054 -116.056910 229 10585ft 152kts
11-Sep-19 16:30 35.069672 -116.088967 229 10585ft 152kts
11-Sep-19 16:31 35.041471 -116.127627 229 10585ft 152kts
11-Sep-19 16:33 35.008542 -116.172648 229 10591ft 151kts
11-Sep-19 16:33 34.985096 -116.204717 230 10594ft 151kts
11-Sep-19 16:34 34.957182 -116.242842 230 10596ft 149kts
11-Sep-19 16:35 34.929406 -116.280737 230 10594ft 148kts
11-Sep-19 16:36 34.902078 -116.317998 230 10591ft 146kts
11-Sep-19 16:37 34.876218 -116.353211 230 10584ft 144kts
11-Sep-19 16:38 34.849355 -116.389727 230 10577ft 144kts
11-Sep-19 16:39 34.822765 -116.425879 228 10575ft 141kts
11-Sep-19 16:40 34.798404 -116.463082 254 10573ft 141kts
11-Sep-19 16:41 34.791701 -116.510464 260 10575ft 142kts
11-Sep-19 16:42 34.786664 -116.558327 261 10575ft 142kts
11-Sep-19 16:43 34.781901 -116.606019 261 10575ft 142kts
11-Sep-19 16:44 34.777206 -116.653497 261 10575ft 142kts
11-Sep-19 16:45 34.772454 -116.701388 261 10576ft 142kts
11-Sep-19 16:46 34.767672 -116.749402 261 10576ft 142kts
11-Sep-19 16:47 34.762879 -116.797324 261 10576ft 142kts
11-Sep-19 16:48 34.758103 -116.845117 261 10576ft 142kts
11-Sep-19 16:49 34.753109 -116.893767 263 10503ft 144kts
11-Sep-19 16:50 34.748177 -116.942282 264 10509ft 143kts
11-Sep-19 16:51 34.743346 -116.990609 265 10515ft 144kts
11-Sep-19 16:52 34.738386 -117.039820 265 10522ft 147kts
11-Sep-19 16:53 34.733269 -117.090064 265 10530ft 150kts
11-Sep-19 16:54 34.727999 -117.141233 264 10537ft 152kts
11-Sep-19 16:55 34.722680 -117.192710 265 10538ft 153kts
11-Sep-19 16:56 34.717330 -117.244485 264 10539ft 153kts
11-Sep-19 16:57 34.711969 -117.296075 265 10538ft 153kts
11-Sep-19 16:58 34.706534 -117.347928 265 10539ft 153kts
11-Sep-19 16:59 34.701201 -117.398815 265 10539ft 153kts
11-Sep-19 17:00 34.695782 -117.450354 264 10490ft 154kts
11-Sep-19 17:01 34.690369 -117.501006 264 10753ft 141kts
11-Sep-19 17:02 34.685335 -117.547793 264 11344ft 140kts
11-Sep-19 17:03 34.680260 -117.595101 264 11923ft 141kts
11-Sep-19 17:04 34.675140 -117.642870 264 12500ft 142kts
11-Sep-19 17:05 34.670101 -117.689916 264 13050ft 142kts
11-Sep-19 17:06 34.665474 -117.732979 264 13448ft 144kts
11-Sep-19 17:07 34.660218 -117.781567 264 13904ft 145kts
11-Sep-19 17:08 34.654953 -117.830270 265 14361ft 145kts
11-Sep-19 17:09 34.649337 -117.881645 265 14476ft 161kts
11-Sep-19 17:10 34.643506 -117.935279 265 14479ft 158kts
11-Sep-19 17:11 34.637710 -117.988196 265 14483ft 158kts
11-Sep-19 17:12 34.631936 -118.040383 264 14486ft 158kts
11-Sep-19 17:13 34.627539 -118.092763 268 14488ft 157kts
11-Sep-19 17:14 34.624031 -118.145678 268 14486ft 157kts
11-Sep-19 17:15 34.620550 -118.198907 268 14479ft 156kts
11-Sep-19 17:16 34.617021 -118.251972 268 14241ft 157kts
11-Sep-19 17:17 34.613514 -118.304869 268 13970ft 156kts
11-Sep-19 17:18 34.609959 -118.357689 268 13691ft 155kts
11-Sep-19 17:19 34.606389 -118.410932 267 13328ft 158kts
11-Sep-19 17:20 34.602763 -118.464319 267 13003ft 158kts
11-Sep-19 17:21 34.599081 -118.518391 267 12568ft 159kts
11-Sep-19 17:22 34.595281 -118.573587 267 11958ft 163kts
11-Sep-19 17:23 34.591637 -118.626337 267 11409ft 162kts
11-Sep-19 17:24 34.588135 -118.676461 266 10871ft 160kts
11-Sep-19 17:25 34.584350 -118.730382 266 10306ft 158kts
11-Sep-19 17:26 34.580611 -118.783362 267 9842ft 156kts
11-Sep-19 17:27 34.576892 -118.835843 267 9396ft 154kts
11-Sep-19 17:28 34.573206 -118.887459 268 8965ft 152kts
11-Sep-19 17:29 34.569541 -118.938421 268 8547ft 149kts
11-Sep-19 17:30 34.565929 -118.988384 268 8143ft 147kts
11-Sep-19 17:31 34.562380 -119.036733 268 7965ft 140kts
11-Sep-19 17:32 34.558942 -119.084058 268 8051ft 140kts
11-Sep-19 17:33 34.555446 -119.131712 268 8221ft 140kts
11-Sep-19 17:34 34.537703 -119.174203 231 8272ft 151kts
11-Sep-19 17:35 34.510632 -119.212274 234 8004ft 150kts
11-Sep-19 17:36 34.484094 -119.251388 236 7733ft 149kts
11-Sep-19 17:37 34.458949 -119.290582 235 7476ft 146kts
11-Sep-19 17:38 34.433203 -119.328810 235 7014ft 145kts
11-Sep-19 17:39 34.407606 -119.366561 235 6574ft 143kts
11-Sep-19 17:40 34.382426 -119.403636 234 6147ft 141kts
11-Sep-19 17:41 34.356824 -119.439844 231 5730ft 140kts
11-Sep-19 17:42 34.332093 -119.476112 236 5380ft 135kts
11-Sep-19 17:43 34.312259 -119.510357 267 5384ft 116kts
11-Sep-19 17:44 34.319794 -119.547090 292 5389ft 112kts
11-Sep-19 17:45 34.332182 -119.582496 293 5309ft 114kts
11-Sep-19 17:46 34.345147 -119.618996 293 4623ft 119kts
11-Sep-19 17:47 34.360316 -119.653640 300 3781ft 117kts
11-Sep-19 17:48 34.373957 -119.680050 292 3125ft 116kts
11-Sep-19 17:49 34.386193 -119.716382 307 2310ft 116kts
11-Sep-19 17:50 34.406375 -119.745520 306 1656ft 114kts
11-Sep-19 17:51 34.426877 -119.774074 300 1054ft 107kts
11-Sep-19 17:52 34.427866 -119.807063 270 583ft 98kts
11-Sep-19 17:53 34.427885 -119.835285 263 42ft 63kts
11-Sep-19 17:54 34.424812 -119.837758 164 15ft 22kts
11-Sep-19 17:55 34.423047 -119.835918 262 15ft 0kts
11-Sep-19 17:56 34.423047 -119.835918 262 15ft 0kts
11-Sep-19 17:57 34.423047 -119.835918 262 15ft 0kts
11-Sep-19 17:58 34.423047 -119.835918 262 15ft 0kts
11-Sep-19 17:59 34.423047 -119.835918 262 15ft 0kts
11-Sep-19 18:00 34.423047 -119.835918 262 15ft 0kts
11-Sep-19 18:01 34.423047 -119.835918 262 15ft 0kts
11-Sep-19 18:02 34.423047 -119.835918 262 15ft 0kts
11-Sep-19 18:03 34.423047 -119.835918 262 15ft 0kts
11-Sep-19 18:04 34.423047 -119.835918 262 15ft 0kts
11-Sep-19 18:05 34.423047 -119.835918 262 15ft 0kts
11-Sep-19 18:06 34.423047 -119.835918 262 15ft 0kts
11-Sep-19 18:07 34.423047 -119.835918 262 15ft 0kts
11-Sep-19 18:08 34.423047 -119.835918 262 15ft 0kts
11-Sep-19 18:09 34.423047 -119.835918 262 15ft 0kts

Navigation Log

Ident Type
Flight plan parsing failed, navigation log unavailable